sensor_id;sensor_type;location;lat;lon;timestamp;temperature;humidity
37204;DHT22;23098;48.054;10.636;2022-11-24T00:01:52;6.00;99.90
37204;DHT22;23098;48.054;10.636;2022-11-24T00:04:17;5.90;99.90
37204;DHT22;23098;48.054;10.636;2022-11-24T00:06:43;5.90;99.90
37204;DHT22;23098;48.054;10.636;2022-11-24T00:09:09;5.90;99.90
37204;DHT22;23098;48.054;10.636;2022-11-24T00:11:35;5.90;99.90
37204;DHT22;23098;48.054;10.636;2022-11-24T00:14:02;5.90;99.90
37204;DHT22;23098;48.054;10.636;2022-11-24T00:16:30;5.80;99.90
37204;DHT22;23098;48.054;10.636;2022-11-24T00:18:57;5.80;99.90
37204;DHT22;23098;48.054;10.636;2022-11-24T00:21:24;5.80;99.90
37204;DHT22;23098;48.054;10.636;2022-11-24T00:23:52;5.70;99.90
37204;DHT22;23098;48.054;10.636;2022-11-24T00:26:30;5.70;99.90
37204;DHT22;23098;48.054;10.636;2022-11-24T00:28:57;5.70;99.90
37204;DHT22;23098;48.054;10.636;2022-11-24T00:31:26;5.60;99.90
37204;DHT22;23098;48.054;10.636;2022-11-24T00:33:54;5.50;99.90
37204;DHT22;23098;48.054;10.636;2022-11-24T00:36:21;5.60;99.90
37204;DHT22;23098;48.054;10.636;2022-11-24T00:38:55;5.60;99.90
37204;DHT22;23098;48.054;10.636;2022-11-24T00:41:22;5.50;99.90
37204;DHT22;23098;48.054;10.636;2022-11-24T00:43:47;5.50;99.90
37204;DHT22;23098;48.054;10.636;2022-11-24T00:46:13;5.50;99.90
37204;DHT22;23098;48.054;10.636;2022-11-24T00:48:38;5.50;99.90
37204;DHT22;23098;48.054;10.636;2022-11-24T00:51:06;5.50;99.90
37204;DHT22;23098;48.054;10.636;2022-11-24T00:53:33;5.40;99.90
37204;DHT22;23098;48.054;10.636;2022-11-24T00:55:59;5.40;99.90
37204;DHT22;23098;48.054;10.636;2022-11-24T00:58:41;5.40;99.90
37204;DHT22;23098;48.054;10.636;2022-11-24T01:01:24;5.30;99.90
37204;DHT22;23098;48.054;10.636;2022-11-24T01:03:51;5.30;99.90
37204;DHT22;23098;48.054;10.636;2022-11-24T01:06:19;5.20;99.90
37204;DHT22;23098;48.054;10.636;2022-11-24T01:08:45;5.30;99.90
37204;DHT22;23098;48.054;10.636;2022-11-24T01:11:25;5.30;99.90
37204;DHT22;23098;48.054;10.636;2022-11-24T01:13:56;5.40;99.90
37204;DHT22;23098;48.054;10.636;2022-11-24T01:16:24;5.40;99.90
37204;DHT22;23098;48.054;10.636;2022-11-24T01:18:51;5.50;99.90
37204;DHT22;23098;48.054;10.636;2022-11-24T01:21:17;5.60;99.90
37204;DHT22;23098;48.054;10.636;2022-11-24T01:23:43;5.70;99.90
37204;DHT22;23098;48.054;10.636;2022-11-24T01:26:11;5.70;99.90
37204;DHT22;23098;48.054;10.636;2022-11-24T01:28:37;5.80;99.90
37204;DHT22;23098;48.054;10.636;2022-11-24T01:31:05;5.80;99.90
37204;DHT22;23098;48.054;10.636;2022-11-24T01:33:32;5.90;99.90
37204;DHT22;23098;48.054;10.636;2022-11-24T01:35:58;5.90;99.90
37204;DHT22;23098;48.054;10.636;2022-11-24T01:38:24;5.90;99.90
37204;DHT22;23098;48.054;10.636;2022-11-24T01:41:06;6.00;99.90
37204;DHT22;23098;48.054;10.636;2022-11-24T01:43:32;6.00;99.90
37204;DHT22;23098;48.054;10.636;2022-11-24T01:46:12;6.00;99.90
37204;DHT22;23098;48.054;10.636;2022-11-24T01:48:44;5.90;99.90
37204;DHT22;23098;48.054;10.636;2022-11-24T01:51:23;5.90;99.90
37204;DHT22;23098;48.054;10.636;2022-11-24T01:53:54;6.00;99.90
37204;DHT22;23098;48.054;10.636;2022-11-24T01:56:21;6.00;99.90
37204;DHT22;23098;48.054;10.636;2022-11-24T01:58:49;6.10;99.90
37204;DHT22;23098;48.054;10.636;2022-11-24T02:01:15;6.10;99.90
37204;DHT22;23098;48.054;10.636;2022-11-24T02:03:43;6.00;99.90
37204;DHT22;23098;48.054;10.636;2022-11-24T02:06:17;6.00;99.90
37204;DHT22;23098;48.054;10.636;2022-11-24T02:08:56;6.00;99.90
37204;DHT22;23098;48.054;10.636;2022-11-24T02:11:23;6.00;99.90
37204;DHT22;23098;48.054;10.636;2022-11-24T02:13:52;6.00;99.90
37204;DHT22;23098;48.054;10.636;2022-11-24T02:16:18;6.00;99.90
37204;DHT22;23098;48.054;10.636;2022-11-24T02:18:43;6.00;99.90
37204;DHT22;23098;48.054;10.636;2022-11-24T02:21:10;6.00;99.90
37204;DHT22;23098;48.054;10.636;2022-11-24T02:23:55;6.00;99.90
37204;DHT22;23098;48.054;10.636;2022-11-24T02:28:59;6.00;99.90
37204;DHT22;23098;48.054;10.636;2022-11-24T02:31:25;6.00;99.90
37204;DHT22;23098;48.054;10.636;2022-11-24T02:33:50;6.10;99.90
37204;DHT22;23098;48.054;10.636;2022-11-24T02:36:16;6.10;99.90
37204;DHT22;23098;48.054;10.636;2022-11-24T02:38:41;6.10;99.90
37204;DHT22;23098;48.054;10.636;2022-11-24T02:41:10;6.00;99.90
37204;DHT22;23098;48.054;10.636;2022-11-24T02:43:43;6.10;99.90
37204;DHT22;23098;48.054;10.636;2022-11-24T02:46:09;6.00;99.90
37204;DHT22;23098;48.054;10.636;2022-11-24T02:48:36;6.00;99.90
37204;DHT22;23098;48.054;10.636;2022-11-24T02:51:02;6.00;99.90
37204;DHT22;23098;48.054;10.636;2022-11-24T02:53:28;5.90;99.90
37204;DHT22;23098;48.054;10.636;2022-11-24T02:55:54;6.00;99.90
37204;DHT22;23098;48.054;10.636;2022-11-24T02:58:20;6.00;99.90
37204;DHT22;23098;48.054;10.636;2022-11-24T03:00:46;5.90;99.90
37204;DHT22;23098;48.054;10.636;2022-11-24T03:03:11;5.90;99.90
37204;DHT22;23098;48.054;10.636;2022-11-24T03:05:37;6.00;99.90
37204;DHT22;23098;48.054;10.636;2022-11-24T03:08:03;6.10;99.90
37204;DHT22;23098;48.054;10.636;2022-11-24T03:10:28;6.10;99.90
37204;DHT22;23098;48.054;10.636;2022-11-24T03:12:54;6.10;99.90
37204;DHT22;23098;48.054;10.636;2022-11-24T03:15:21;6.10;99.90
37204;DHT22;23098;48.054;10.636;2022-11-24T03:17:47;6.10;99.90
37204;DHT22;23098;48.054;10.636;2022-11-24T03:20:12;6.10;99.90
37204;DHT22;23098;48.054;10.636;2022-11-24T03:22:38;6.10;99.90
37204;DHT22;23098;48.054;10.636;2022-11-24T03:25:04;6.10;99.90
37204;DHT22;23098;48.054;10.636;2022-11-24T03:27:30;6.10;99.90
37204;DHT22;23098;48.054;10.636;2022-11-24T03:29:55;6.10;99.90
37204;DHT22;23098;48.054;10.636;2022-11-24T03:32:21;6.20;99.90
37204;DHT22;23098;48.054;10.636;2022-11-24T03:34:47;6.10;99.90
37204;DHT22;23098;48.054;10.636;2022-11-24T03:37:13;6.20;99.90
37204;DHT22;23098;48.054;10.636;2022-11-24T03:39:38;6.20;99.90
37204;DHT22;23098;48.054;10.636;2022-11-24T03:42:04;6.20;99.90
37204;DHT22;23098;48.054;10.636;2022-11-24T03:44:30;6.20;99.90
37204;DHT22;23098;48.054;10.636;2022-11-24T03:46:55;6.20;99.90
37204;DHT22;23098;48.054;10.636;2022-11-24T03:49:21;6.20;99.90
37204;DHT22;23098;48.054;10.636;2022-11-24T03:51:46;6.20;99.90
37204;DHT22;23098;48.054;10.636;2022-11-24T03:54:12;6.20;99.90
37204;DHT22;23098;48.054;10.636;2022-11-24T03:56:37;6.20;99.90
37204;DHT22;23098;48.054;10.636;2022-11-24T03:59:03;6.20;99.90
37204;DHT22;23098;48.054;10.636;2022-11-24T04:01:28;6.20;99.90
37204;DHT22;23098;48.054;10.636;2022-11-24T04:03:54;6.20;99.90
37204;DHT22;23098;48.054;10.636;2022-11-24T04:06:19;6.20;99.90
37204;DHT22;23098;48.054;10.636;2022-11-24T04:08:45;6.20;99.90
37204;DHT22;23098;48.054;10.636;2022-11-24T04:11:10;6.20;99.90
37204;DHT22;23098;48.054;10.636;2022-11-24T04:13:56;6.20;99.90
37204;DHT22;23098;48.054;10.636;2022-11-24T04:16:21;6.20;99.90
37204;DHT22;23098;48.054;10.636;2022-11-24T04:18:47;6.20;99.90
37204;DHT22;23098;48.054;10.636;2022-11-24T04:21:12;6.20;99.90
37204;DHT22;23098;48.054;10.636;2022-11-24T04:23:38;6.10;99.90
37204;DHT22;23098;48.054;10.636;2022-11-24T04:26:04;6.10;99.90
37204;DHT22;23098;48.054;10.636;2022-11-24T04:28:29;6.10;99.90
37204;DHT22;23098;48.054;10.636;2022-11-24T04:31:01;6.00;99.90
37204;DHT22;23098;48.054;10.636;2022-11-24T04:33:26;5.90;99.90
37204;DHT22;23098;48.054;10.636;2022-11-24T04:35:52;5.90;99.90
37204;DHT22;23098;48.054;10.636;2022-11-24T04:38:18;5.90;99.90
37204;DHT22;23098;48.054;10.636;2022-11-24T04:40:43;6.00;99.90
37204;DHT22;23098;48.054;10.636;2022-11-24T04:43:09;6.00;99.90
37204;DHT22;23098;48.054;10.636;2022-11-24T04:45:35;6.00;99.90
37204;DHT22;23098;48.054;10.636;2022-11-24T04:48:00;6.00;99.90
37204;DHT22;23098;48.054;10.636;2022-11-24T04:50:26;6.10;99.90
37204;DHT22;23098;48.054;10.636;2022-11-24T04:52:51;6.20;99.90
37204;DHT22;23098;48.054;10.636;2022-11-24T04:55:17;6.20;99.90
37204;DHT22;23098;48.054;10.636;2022-11-24T04:57:43;6.20;99.90
37204;DHT22;23098;48.054;10.636;2022-11-24T05:00:09;6.30;99.90
37204;DHT22;23098;48.054;10.636;2022-11-24T05:02:35;6.20;99.90
37204;DHT22;23098;48.054;10.636;2022-11-24T05:05:02;6.20;99.90
37204;DHT22;23098;48.054;10.636;2022-11-24T05:07:28;6.20;99.90
37204;DHT22;23098;48.054;10.636;2022-11-24T05:09:53;6.10;99.90
37204;DHT22;23098;48.054;10.636;2022-11-24T05:12:38;6.10;99.90
37204;DHT22;23098;48.054;10.636;2022-11-24T05:15:04;6.10;99.90
37204;DHT22;23098;48.054;10.636;2022-11-24T05:17:35;6.10;99.90
37204;DHT22;23098;48.054;10.636;2022-11-24T05:20:01;6.10;99.90
37204;DHT22;23098;48.054;10.636;2022-11-24T05:22:27;6.00;99.90
37204;DHT22;23098;48.054;10.636;2022-11-24T05:24:53;6.00;99.90
37204;DHT22;23098;48.054;10.636;2022-11-24T05:27:19;6.00;99.90
37204;DHT22;23098;48.054;10.636;2022-11-24T05:29:44;5.90;99.90
37204;DHT22;23098;48.054;10.636;2022-11-24T05:32:10;6.00;99.90
37204;DHT22;23098;48.054;10.636;2022-11-24T05:34:37;6.10;99.90
37204;DHT22;23098;48.054;10.636;2022-11-24T05:37:03;6.10;99.90
37204;DHT22;23098;48.054;10.636;2022-11-24T05:39:32;6.00;99.90
37204;DHT22;23098;48.054;10.636;2022-11-24T05:41:58;6.00;99.90
37204;DHT22;23098;48.054;10.636;2022-11-24T05:44:24;6.00;99.90
37204;DHT22;23098;48.054;10.636;2022-11-24T05:46:49;6.00;99.90
37204;DHT22;23098;48.054;10.636;2022-11-24T05:49:15;5.90;99.90
37204;DHT22;23098;48.054;10.636;2022-11-24T05:51:41;5.90;99.90
37204;DHT22;23098;48.054;10.636;2022-11-24T05:54:06;5.80;99.90
37204;DHT22;23098;48.054;10.636;2022-11-24T05:56:32;5.80;99.90
37204;DHT22;23098;48.054;10.636;2022-11-24T05:58:57;5.80;99.90
37204;DHT22;23098;48.054;10.636;2022-11-24T06:01:23;5.80;99.90
37204;DHT22;23098;48.054;10.636;2022-11-24T06:03:48;5.70;99.90
37204;DHT22;23098;48.054;10.636;2022-11-24T06:06:14;5.80;99.90
37204;DHT22;23098;48.054;10.636;2022-11-24T06:08:39;5.80;99.90
37204;DHT22;23098;48.054;10.636;2022-11-24T06:11:05;5.80;99.90
37204;DHT22;23098;48.054;10.636;2022-11-24T06:13:43;5.70;99.90
37204;DHT22;23098;48.054;10.636;2022-11-24T06:16:10;5.70;99.90
37204;DHT22;23098;48.054;10.636;2022-11-24T06:18:35;5.70;99.90
37204;DHT22;23098;48.054;10.636;2022-11-24T06:21:02;5.70;99.90
37204;DHT22;23098;48.054;10.636;2022-11-24T06:23:27;5.70;99.90
37204;DHT22;23098;48.054;10.636;2022-11-24T06:25:53;5.70;99.90
37204;DHT22;23098;48.054;10.636;2022-11-24T06:28:19;5.70;99.90
37204;DHT22;23098;48.054;10.636;2022-11-24T06:30:45;5.60;99.90
37204;DHT22;23098;48.054;10.636;2022-11-24T06:33:11;5.70;99.90
37204;DHT22;23098;48.054;10.636;2022-11-24T06:35:36;5.70;99.90
37204;DHT22;23098;48.054;10.636;2022-11-24T06:38:03;5.70;99.90
37204;DHT22;23098;48.054;10.636;2022-11-24T06:40:29;5.80;99.90
37204;DHT22;23098;48.054;10.636;2022-11-24T06:42:54;5.70;99.90
37204;DHT22;23098;48.054;10.636;2022-11-24T06:45:20;5.70;99.90
37204;DHT22;23098;48.054;10.636;2022-11-24T06:47:45;5.70;99.90
37204;DHT22;23098;48.054;10.636;2022-11-24T06:50:11;5.90;99.90
37204;DHT22;23098;48.054;10.636;2022-11-24T06:52:36;5.90;99.90
37204;DHT22;23098;48.054;10.636;2022-11-24T06:55:02;5.80;99.90
37204;DHT22;23098;48.054;10.636;2022-11-24T06:57:27;5.80;99.90
37204;DHT22;23098;48.054;10.636;2022-11-24T06:59:55;5.70;99.90
37204;DHT22;23098;48.054;10.636;2022-11-24T07:02:22;5.80;99.90
37204;DHT22;23098;48.054;10.636;2022-11-24T07:04:48;5.80;99.90
37204;DHT22;23098;48.054;10.636;2022-11-24T07:07:14;5.80;99.90
37204;DHT22;23098;48.054;10.636;2022-11-24T07:09:40;5.80;99.90
37204;DHT22;23098;48.054;10.636;2022-11-24T07:12:05;5.80;99.90
37204;DHT22;23098;48.054;10.636;2022-11-24T07:14:31;5.90;99.90
37204;DHT22;23098;48.054;10.636;2022-11-24T07:16:57;5.90;99.90
37204;DHT22;23098;48.054;10.636;2022-11-24T07:19:22;6.00;99.90
37204;DHT22;23098;48.054;10.636;2022-11-24T07:21:48;6.00;99.90
37204;DHT22;23098;48.054;10.636;2022-11-24T07:24:14;6.10;99.90
37204;DHT22;23098;48.054;10.636;2022-11-24T07:26:39;6.20;99.90
37204;DHT22;23098;48.054;10.636;2022-11-24T07:29:05;6.20;99.90
37204;DHT22;23098;48.054;10.636;2022-11-24T07:31:30;6.20;99.90
37204;DHT22;23098;48.054;10.636;2022-11-24T07:33:56;6.30;99.90
37204;DHT22;23098;48.054;10.636;2022-11-24T07:36:22;6.40;99.90
37204;DHT22;23098;48.054;10.636;2022-11-24T07:38:48;6.40;99.90
37204;DHT22;23098;48.054;10.636;2022-11-24T07:41:16;6.50;99.90
37204;DHT22;23098;48.054;10.636;2022-11-24T07:43:44;6.60;99.90
37204;DHT22;23098;48.054;10.636;2022-11-24T07:46:12;6.60;99.90
37204;DHT22;23098;48.054;10.636;2022-11-24T07:48:38;6.60;99.90
37204;DHT22;23098;48.054;10.636;2022-11-24T07:51:04;6.70;99.90
37204;DHT22;23098;48.054;10.636;2022-11-24T07:53:31;6.70;99.90
37204;DHT22;23098;48.054;10.636;2022-11-24T07:55:59;6.70;99.90
37204;DHT22;23098;48.054;10.636;2022-11-24T07:58:28;6.80;99.90
37204;DHT22;23098;48.054;10.636;2022-11-24T08:00:54;6.90;99.90
37204;DHT22;23098;48.054;10.636;2022-11-24T08:03:20;7.10;99.90
37204;DHT22;23098;48.054;10.636;2022-11-24T08:05:55;7.20;99.90
37204;DHT22;23098;48.054;10.636;2022-11-24T08:08:22;7.20;99.90
37204;DHT22;23098;48.054;10.636;2022-11-24T08:10:47;7.10;99.90
37204;DHT22;23098;48.054;10.636;2022-11-24T08:13:13;7.30;99.90
37204;DHT22;23098;48.054;10.636;2022-11-24T08:15:38;7.30;99.90
37204;DHT22;23098;48.054;10.636;2022-11-24T08:18:04;7.30;99.90
37204;DHT22;23098;48.054;10.636;2022-11-24T08:20:30;7.40;99.90
37204;DHT22;23098;48.054;10.636;2022-11-24T08:22:57;7.40;99.90
37204;DHT22;23098;48.054;10.636;2022-11-24T08:25:24;7.40;99.90
37204;DHT22;23098;48.054;10.636;2022-11-24T08:27:51;7.40;99.90
37204;DHT22;23098;48.054;10.636;2022-11-24T08:30:17;7.40;99.90
37204;DHT22;23098;48.054;10.636;2022-11-24T08:32:44;7.30;99.90
37204;DHT22;23098;48.054;10.636;2022-11-24T08:35:10;7.30;99.90
37204;DHT22;23098;48.054;10.636;2022-11-24T08:37:36;7.30;99.90
37204;DHT22;23098;48.054;10.636;2022-11-24T08:40:02;7.40;99.90
37204;DHT22;23098;48.054;10.636;2022-11-24T08:42:27;7.40;99.90
37204;DHT22;23098;48.054;10.636;2022-11-24T08:44:53;7.50;99.90
37204;DHT22;23098;48.054;10.636;2022-11-24T08:47:18;7.60;99.90
37204;DHT22;23098;48.054;10.636;2022-11-24T08:49:46;7.70;99.90
37204;DHT22;23098;48.054;10.636;2022-11-24T08:52:11;7.80;99.90
37204;DHT22;23098;48.054;10.636;2022-11-24T08:54:37;7.70;99.90
37204;DHT22;23098;48.054;10.636;2022-11-24T08:57:02;7.60;99.90
37204;DHT22;23098;48.054;10.636;2022-11-24T08:59:28;7.40;99.90
37204;DHT22;23098;48.054;10.636;2022-11-24T09:01:53;7.30;99.90
37204;DHT22;23098;48.054;10.636;2022-11-24T09:04:19;7.10;99.90
37204;DHT22;23098;48.054;10.636;2022-11-24T09:06:44;7.00;99.90
37204;DHT22;23098;48.054;10.636;2022-11-24T09:09:10;6.90;99.90
37204;DHT22;23098;48.054;10.636;2022-11-24T09:11:36;6.80;99.90
37204;DHT22;23098;48.054;10.636;2022-11-24T09:14:02;6.80;99.90
37204;DHT22;23098;48.054;10.636;2022-11-24T09:16:28;6.60;99.90
37204;DHT22;23098;48.054;10.636;2022-11-24T09:18:56;6.60;99.90
37204;DHT22;23098;48.054;10.636;2022-11-24T09:21:22;6.50;99.90
37204;DHT22;23098;48.054;10.636;2022-11-24T09:23:49;6.40;99.90
37204;DHT22;23098;48.054;10.636;2022-11-24T09:26:30;6.30;99.90
37204;DHT22;23098;48.054;10.636;2022-11-24T09:28:58;6.30;99.90
37204;DHT22;23098;48.054;10.636;2022-11-24T09:31:26;6.30;99.90
37204;DHT22;23098;48.054;10.636;2022-11-24T09:33:53;6.30;99.90
37204;DHT22;23098;48.054;10.636;2022-11-24T09:36:20;6.30;99.90
37204;DHT22;23098;48.054;10.636;2022-11-24T09:38:45;6.30;99.90
37204;DHT22;23098;48.054;10.636;2022-11-24T09:46:23;6.20;99.90
37204;DHT22;23098;48.054;10.636;2022-11-24T09:48:53;6.20;99.90
37204;DHT22;23098;48.054;10.636;2022-11-24T09:51:25;6.20;99.90
37204;DHT22;23098;48.054;10.636;2022-11-24T09:54:01;6.20;99.90
37204;DHT22;23098;48.054;10.636;2022-11-24T09:56:32;6.20;99.90
37204;DHT22;23098;48.054;10.636;2022-11-24T09:59:06;6.20;99.90
37204;DHT22;23098;48.054;10.636;2022-11-24T10:01:38;6.20;99.90
37204;DHT22;23098;48.054;10.636;2022-11-24T10:04:14;6.20;99.90
37204;DHT22;23098;48.054;10.636;2022-11-24T10:07:04;6.10;99.90
37204;DHT22;23098;48.054;10.636;2022-11-24T10:12:20;6.00;99.90
37204;DHT22;23098;48.054;10.636;2022-11-24T10:15:10;6.00;99.90
37204;DHT22;23098;48.054;10.636;2022-11-24T10:20:41;5.90;99.90
37204;DHT22;23098;48.054;10.636;2022-11-24T10:23:27;5.90;99.90
37204;DHT22;23098;48.054;10.636;2022-11-24T10:25:57;5.80;99.90
37204;DHT22;23098;48.054;10.636;2022-11-24T10:28:47;5.80;99.90
37204;DHT22;23098;48.054;10.636;2022-11-24T10:31:34;5.80;99.90
37204;DHT22;23098;48.054;10.636;2022-11-24T10:34:04;5.80;99.90
37204;DHT22;23098;48.054;10.636;2022-11-24T10:39:33;5.80;99.90
37204;DHT22;23098;48.054;10.636;2022-11-24T10:44:39;5.80;99.90
37204;DHT22;23098;48.054;10.636;2022-11-24T10:47:19;5.80;99.90
37204;DHT22;23098;48.054;10.636;2022-11-24T10:49:55;5.80;99.90
37204;DHT22;23098;48.054;10.636;2022-11-24T10:52:24;5.90;99.90
37204;DHT22;23098;48.054;10.636;2022-11-24T10:55:02;6.00;99.90
37204;DHT22;23098;48.054;10.636;2022-11-24T10:57:32;6.00;99.90
37204;DHT22;23098;48.054;10.636;2022-11-24T10:59:59;5.90;99.90
37204;DHT22;23098;48.054;10.636;2022-11-24T11:02:35;6.00;99.90
37204;DHT22;23098;48.054;10.636;2022-11-24T11:07:49;5.90;99.90
37204;DHT22;23098;48.054;10.636;2022-11-24T11:10:22;5.90;99.90
37204;DHT22;23098;48.054;10.636;2022-11-24T11:12:48;5.90;99.90
37204;DHT22;23098;48.054;10.636;2022-11-24T11:15:34;5.90;99.90
37204;DHT22;23098;48.054;10.636;2022-11-24T11:18:00;6.00;99.90
37204;DHT22;23098;48.054;10.636;2022-11-24T11:20:34;6.10;99.90
37204;DHT22;23098;48.054;10.636;2022-11-24T11:23:12;6.20;99.90
37204;DHT22;23098;48.054;10.636;2022-11-24T11:25:38;6.30;99.90
37204;DHT22;23098;48.054;10.636;2022-11-24T11:28:26;6.40;99.90
37204;DHT22;23098;48.054;10.636;2022-11-24T11:30:58;6.50;99.90
37204;DHT22;23098;48.054;10.636;2022-11-24T11:33:26;6.60;99.90
37204;DHT22;23098;48.054;10.636;2022-11-24T11:35:53;6.70;99.90
37204;DHT22;23098;48.054;10.636;2022-11-24T11:38:19;6.70;99.90
37204;DHT22;23098;48.054;10.636;2022-11-24T11:40:47;6.80;99.90
37204;DHT22;23098;48.054;10.636;2022-11-24T11:43:27;6.90;99.90
37204;DHT22;23098;48.054;10.636;2022-11-24T11:46:20;7.00;99.90
37204;DHT22;23098;48.054;10.636;2022-11-24T11:48:47;7.00;99.90
37204;DHT22;23098;48.054;10.636;2022-11-24T11:51:38;7.10;99.90
37204;DHT22;23098;48.054;10.636;2022-11-24T11:57:09;7.20;99.90
37204;DHT22;23098;48.054;10.636;2022-11-24T12:02:29;7.20;99.90
37204;DHT22;23098;48.054;10.636;2022-11-24T12:07:54;7.40;99.90
37204;DHT22;23098;48.054;10.636;2022-11-24T12:10:35;7.50;99.90
37204;DHT22;23098;48.054;10.636;2022-11-24T12:13:41;7.60;99.90
37204;DHT22;23098;48.054;10.636;2022-11-24T12:30:15;7.40;99.90
37204;DHT22;23098;48.054;10.636;2022-11-24T12:33:04;7.20;99.90
37204;DHT22;23098;48.054;10.636;2022-11-24T12:36:09;7.10;99.90
37204;DHT22;23098;48.054;10.636;2022-11-24T12:38:44;7.10;99.90
37204;DHT22;23098;48.054;10.636;2022-11-24T12:41:41;7.10;99.90
37204;DHT22;23098;48.054;10.636;2022-11-24T12:47:08;7.70;99.90
37204;DHT22;23098;48.054;10.636;2022-11-24T12:50:02;7.80;99.90
37204;DHT22;23098;48.054;10.636;2022-11-24T12:52:35;7.60;99.90
37204;DHT22;23098;48.054;10.636;2022-11-24T12:55:02;7.40;99.90
37204;DHT22;23098;48.054;10.636;2022-11-24T12:57:33;7.30;99.90
37204;DHT22;23098;48.054;10.636;2022-11-24T13:00:20;7.40;99.90
37204;DHT22;23098;48.054;10.636;2022-11-24T13:02:50;8.00;99.90
37204;DHT22;23098;48.054;10.636;2022-11-24T13:05:30;8.40;99.90
37204;DHT22;23098;48.054;10.636;2022-11-24T13:07:58;8.90;99.90
37204;DHT22;23098;48.054;10.636;2022-11-24T13:10:27;8.70;99.90
37204;DHT22;23098;48.054;10.636;2022-11-24T13:15:24;8.60;99.90
37204;DHT22;23098;48.054;10.636;2022-11-24T13:17:51;8.50;99.90
37204;DHT22;23098;48.054;10.636;2022-11-24T13:23:02;8.40;99.90
37204;DHT22;23098;48.054;10.636;2022-11-24T13:25:33;8.10;99.90
37204;DHT22;23098;48.054;10.636;2022-11-24T13:28:03;7.90;99.90
37204;DHT22;23098;48.054;10.636;2022-11-24T13:33:38;7.60;99.90
37204;DHT22;23098;48.054;10.636;2022-11-24T13:36:27;7.50;99.90
37204;DHT22;23098;48.054;10.636;2022-11-24T13:38:50;7.60;99.90
37204;DHT22;23098;48.054;10.636;2022-11-24T13:47:00;7.00;99.90
37204;DHT22;23098;48.054;10.636;2022-11-24T13:49:43;7.00;99.90
37204;DHT22;23098;48.054;10.636;2022-11-24T14:03:24;6.90;99.90
37204;DHT22;23098;48.054;10.636;2022-11-24T14:05:51;6.80;99.90
37204;DHT22;23098;48.054;10.636;2022-11-24T14:08:26;6.70;99.90
37204;DHT22;23098;48.054;10.636;2022-11-24T14:10:53;6.60;99.90
37204;DHT22;23098;48.054;10.636;2022-11-24T14:16:17;6.50;99.90
37204;DHT22;23098;48.054;10.636;2022-11-24T14:19:08;6.40;99.90
37204;DHT22;23098;48.054;10.636;2022-11-24T14:21:37;6.30;99.90
37204;DHT22;23098;48.054;10.636;2022-11-24T14:24:23;6.50;99.90
37204;DHT22;23098;48.054;10.636;2022-11-24T14:26:50;6.70;99.90
37204;DHT22;23098;48.054;10.636;2022-11-24T14:29:20;6.80;99.90
37204;DHT22;23098;48.054;10.636;2022-11-24T14:32:00;6.90;99.90
37204;DHT22;23098;48.054;10.636;2022-11-24T14:34:30;6.80;99.90
37204;DHT22;23098;48.054;10.636;2022-11-24T14:36:59;6.70;99.90
37204;DHT22;23098;48.054;10.636;2022-11-24T14:39:25;6.60;99.90
37204;DHT22;23098;48.054;10.636;2022-11-24T14:42:03;6.60;99.90
37204;DHT22;23098;48.054;10.636;2022-11-24T14:44:32;6.50;99.90
37204;DHT22;23098;48.054;10.636;2022-11-24T14:47:17;6.50;99.90
37204;DHT22;23098;48.054;10.636;2022-11-24T14:49:43;6.50;99.90
37204;DHT22;23098;48.054;10.636;2022-11-24T14:52:14;6.40;99.90
37204;DHT22;23098;48.054;10.636;2022-11-24T14:54:56;6.40;99.90
37204;DHT22;23098;48.054;10.636;2022-11-24T14:57:29;6.30;99.90
37204;DHT22;23098;48.054;10.636;2022-11-24T15:02:42;6.40;99.90
37204;DHT22;23098;48.054;10.636;2022-11-24T15:05:10;6.40;99.90
37204;DHT22;23098;48.054;10.636;2022-11-24T15:07:38;6.40;99.90
37204;DHT22;23098;48.054;10.636;2022-11-24T15:10:16;6.40;99.90
37204;DHT22;23098;48.054;10.636;2022-11-24T15:12:55;6.40;99.90
37204;DHT22;23098;48.054;10.636;2022-11-24T15:15:33;6.30;99.90
37204;DHT22;23098;48.054;10.636;2022-11-24T15:18:02;6.30;99.90
37204;DHT22;23098;48.054;10.636;2022-11-24T15:20:35;6.30;99.90
37204;DHT22;23098;48.054;10.636;2022-11-24T15:25:53;6.30;99.90
37204;DHT22;23098;48.054;10.636;2022-11-24T15:28:21;6.30;99.90
37204;DHT22;23098;48.054;10.636;2022-11-24T15:31:14;6.30;99.90
37204;DHT22;23098;48.054;10.636;2022-11-24T15:33:47;6.40;99.90
37204;DHT22;23098;48.054;10.636;2022-11-24T15:36:13;6.40;99.90
37204;DHT22;23098;48.054;10.636;2022-11-24T15:38:42;6.40;99.90
37204;DHT22;23098;48.054;10.636;2022-11-24T15:41:18;6.50;99.90
37204;DHT22;23098;48.054;10.636;2022-11-24T15:43:44;6.50;99.90
37204;DHT22;23098;48.054;10.636;2022-11-24T15:46:09;6.50;99.90
37204;DHT22;23098;48.054;10.636;2022-11-24T15:48:35;6.50;99.90
37204;DHT22;23098;48.054;10.636;2022-11-24T15:51:05;6.50;99.90
37204;DHT22;23098;48.054;10.636;2022-11-24T15:53:38;6.50;99.90
37204;DHT22;23098;48.054;10.636;2022-11-24T15:56:07;6.50;99.90
37204;DHT22;23098;48.054;10.636;2022-11-24T15:58:36;6.40;99.90
37204;DHT22;23098;48.054;10.636;2022-11-24T16:01:02;6.50;99.90
37204;DHT22;23098;48.054;10.636;2022-11-24T16:03:27;6.70;99.90
37204;DHT22;23098;48.054;10.636;2022-11-24T16:05:54;6.60;99.90
37204;DHT22;23098;48.054;10.636;2022-11-24T16:08:21;6.50;99.90
37204;DHT22;23098;48.054;10.636;2022-11-24T16:10:49;6.50;99.90
37204;DHT22;23098;48.054;10.636;2022-11-24T16:13:15;6.40;99.90
37204;DHT22;23098;48.054;10.636;2022-11-24T16:15:41;6.30;99.90
37204;DHT22;23098;48.054;10.636;2022-11-24T16:18:08;6.30;99.90
37204;DHT22;23098;48.054;10.636;2022-11-24T16:20:38;6.20;99.90
37204;DHT22;23098;48.054;10.636;2022-11-24T16:23:06;6.20;99.90
37204;DHT22;23098;48.054;10.636;2022-11-24T16:25:33;6.20;99.90
37204;DHT22;23098;48.054;10.636;2022-11-24T16:28:00;6.20;99.90
37204;DHT22;23098;48.054;10.636;2022-11-24T16:30:28;6.20;99.90
37204;DHT22;23098;48.054;10.636;2022-11-24T16:32:53;6.20;99.90
37204;DHT22;23098;48.054;10.636;2022-11-24T16:35:19;6.10;99.90
37204;DHT22;23098;48.054;10.636;2022-11-24T16:37:44;6.10;99.90
37204;DHT22;23098;48.054;10.636;2022-11-24T16:40:10;6.00;99.90
37204;DHT22;23098;48.054;10.636;2022-11-24T16:42:36;6.10;99.90
37204;DHT22;23098;48.054;10.636;2022-11-24T16:45:01;6.10;99.90
37204;DHT22;23098;48.054;10.636;2022-11-24T16:47:27;6.10;99.90
37204;DHT22;23098;48.054;10.636;2022-11-24T16:49:53;6.20;99.90
37204;DHT22;23098;48.054;10.636;2022-11-24T16:52:19;6.20;99.90
37204;DHT22;23098;48.054;10.636;2022-11-24T16:54:45;6.00;99.90
37204;DHT22;23098;48.054;10.636;2022-11-24T16:57:13;6.00;99.90
37204;DHT22;23098;48.054;10.636;2022-11-24T16:59:38;5.90;99.90
37204;DHT22;23098;48.054;10.636;2022-11-24T17:02:04;5.80;99.90
37204;DHT22;23098;48.054;10.636;2022-11-24T17:04:31;5.80;99.90